Time;durP1;ratioP1;P1;durP2;ratioP2;P2;SDS_P1;SDS_P2;PMS_P1;PMS_P2;Temp;Humidity;BMP_temperature;BMP_pressure;BME280_temperature;BME280_humidity;BME280_pressure;Samples;Min_cycle;Max_cycle;Signal;HPM_P1;HPM_P2
2022/06/22 00:01:19;;;;;;;5.83;4.03;;;;;;;26.28;46.56;98182.44;6945704;28;20261;-77
2022/06/22 00:04:45;;;;;;;7.03;3.80;;;;;;;26.55;45.85;98175.84;6945701;28;20203;-77
2022/06/22 00:08:11;;;;;;;4.07;3.67;;;;;;;26.63;45.52;98162.03;6945198;28;20219;-77
2022/06/22 00:11:35;;;;;;;4.50;3.80;;;;;;;26.27;46.31;98146.81;6944815;28;20229;-78
2022/06/22 00:14:59;;;;;;;4.20;3.83;;;;;;;26.00;47.27;98158.13;6945585;28;20192;-78
2022/06/22 00:18:26;;;;;;;4.67;3.70;;;;;;;25.76;48.13;98163.19;6945189;28;20294;-78
2022/06/22 00:21:50;;;;;;;6.40;3.63;;;;;;;26.03;46.89;98141.72;6945817;28;20234;-78
2022/06/22 00:25:19;;;;;;;4.23;3.60;;;;;;;26.08;46.17;98149.84;6945775;28;20242;-78
2022/06/22 00:28:54;;;;;;;4.17;3.70;;;;;;;25.99;46.42;98120.56;6945190;28;20302;-78
2022/06/22 00:32:18;;;;;;;4.53;3.50;;;;;;;26.10;45.93;98111.69;6946598;28;20276;-78
2022/06/22 00:36:13;;;;;;;3.83;3.50;;;;;;;25.90;46.78;98114.22;6945996;28;20626;-78
2022/06/22 00:39:40;;;;;;;5.90;3.60;;;;;;;25.81;46.95;98083.78;6940820;28;20681;-78
2022/06/22 00:43:01;;;;;;;6.53;3.83;;;;;;;24.91;49.39;98107.47;6945629;28;20238;-78
2022/06/22 00:46:24;;;;;;;4.30;3.80;;;;;;;25.24;48.08;98081.28;6945466;28;20237;-78
2022/06/22 00:49:46;;;;;;;3.70;3.40;;;;;;;25.55;46.92;98087.59;6944396;28;20231;-78
2022/06/22 00:53:14;;;;;;;3.93;3.53;;;;;;;25.58;46.49;98085.00;6945473;28;20280;-78
2022/06/22 00:56:43;;;;;;;5.70;3.50;;;;;;;25.50;46.64;98105.13;6950556;28;20233;-78
2022/06/22 01:00:13;;;;;;;7.17;3.60;;;;;;;25.54;46.57;98119.88;6949852;28;20198;-78
2022/06/22 01:03:39;;;;;;;6.97;3.57;;;;;;;25.07;47.53;98114.25;6975108;28;20269;-78
2022/06/22 01:07:05;;;;;;;4.20;3.40;;;;;;;25.25;47.98;98136.13;6977917;28;20306;-78
2022/06/22 01:10:32;;;;;;;3.93;3.63;;;;;;;25.58;46.71;98145.75;6989117;28;20238;-77
2022/06/22 01:13:56;;;;;;;4.37;3.40;;;;;;;25.54;47.52;98136.44;6992660;28;20308;-78
2022/06/22 01:17:28;;;;;;;4.43;3.60;;;;;;;25.39;47.42;98119.50;6978035;28;20246;-78
2022/06/22 01:21:02;;;;;;;3.97;3.57;;;;;;;25.40;48.26;98141.25;6972357;28;20202;-78
2022/06/22 01:24:29;;;;;;;4.17;3.70;;;;;;;25.58;47.55;98145.75;6977408;28;20297;-78
2022/06/22 01:27:52;;;;;;;4.77;4.10;;;;;;;25.40;48.09;98165.28;6976905;28;20222;-78
2022/06/22 01:31:14;;;;;;;4.63;3.43;;;;;;;25.02;49.10;98153.78;6977991;28;20237;-77
2022/06/22 01:34:38;;;;;;;4.30;3.83;;;;;;;25.41;47.96;98145.66;6977445;28;20682;-78
2022/06/22 01:38:11;;;;;;;4.10;3.70;;;;;;;25.41;47.66;98162.22;6976550;28;20195;-78
2022/06/22 01:41:38;;;;;;;6.17;3.80;;;;;;;25.18;48.67;98151.50;6977764;28;20279;-79
2022/06/22 01:45:03;;;;;;;4.23;3.83;;;;;;;24.40;50.59;98145.63;6976827;28;20300;-78
2022/06/22 01:48:30;;;;;;;5.50;3.93;;;;;;;24.91;49.77;98135.91;6976530;28;20244;-78
2022/06/22 01:51:53;;;;;;;6.27;4.27;;;;;;;25.03;49.51;98146.34;6976688;28;20237;-78
2022/06/22 01:55:24;;;;;;;5.07;3.53;;;;;;;24.87;50.01;98148.66;6976543;28;20351;-78
2022/06/22 01:58:54;;;;;;;4.20;3.90;;;;;;;24.45;51.19;98157.34;6976057;28;20219;-78
2022/06/22 02:02:20;;;;;;;6.23;3.97;;;;;;;24.08;51.79;98159.56;6976605;28;20262;-78
2022/06/22 02:05:44;;;;;;;5.33;4.20;;;;;;;24.54;50.81;98151.94;6975566;28;20206;-78
2022/06/22 02:09:08;;;;;;;3.63;3.33;;;;;;;24.84;50.30;98165.03;6975694;28;20230;-78
2022/06/22 02:12:42;;;;;;;6.00;3.60;;;;;;;25.03;49.67;98165.66;6975581;28;20659;-78
2022/06/22 02:16:07;;;;;;;4.50;3.50;;;;;;;25.01;49.72;98171.47;6976545;28;20225;-78
2022/06/22 02:19:31;;;;;;;4.73;3.77;;;;;;;24.52;50.97;98162.44;6975273;28;20329;-78
2022/06/22 02:22:55;;;;;;;4.77;3.53;;;;;;;24.44;51.10;98144.72;6975996;28;20239;-78
2022/06/22 02:26:20;;;;;;;4.47;4.00;;;;;;;24.62;50.94;98134.66;6976140;28;20209;-78
2022/06/22 02:29:43;;;;;;;5.60;3.90;;;;;;;24.90;49.92;98114.94;6974897;28;20740;-78
2022/06/22 02:33:05;;;;;;;6.27;4.53;;;;;;;24.88;50.12;98116.38;6975702;28;20230;-78
2022/06/22 02:36:31;;;;;;;5.60;4.10;;;;;;;25.00;49.75;98124.88;6977169;28;20237;-78
2022/06/22 02:39:55;;;;;;;4.17;3.80;;;;;;;24.65;50.50;98126.59;6975303;28;20194;-78
2022/06/22 02:46:56;;;;;;;5.93;3.97;;;;;;;25.22;49.15;98139.50;6974979;28;20276;-78
2022/06/22 02:50:21;;;;;;;4.73;4.10;;;;;;;25.36;48.79;98140.25;6974488;28;20229;-78
2022/06/22 02:53:44;;;;;;;4.90;3.97;;;;;;;25.32;48.98;98166.84;6974721;28;20316;-78
2022/06/22 02:57:15;;;;;;;4.67;4.27;;;;;;;24.84;50.21;98132.72;6974426;28;20604;-78
2022/06/22 03:00:42;;;;;;;7.23;4.37;;;;;;;24.90;50.49;98144.47;6975162;28;20728;-78
2022/06/22 03:04:08;;;;;;;6.20;4.83;;;;;;;24.93;50.96;98130.03;6947864;28;20357;-78
2022/06/22 03:07:30;;;;;;;5.13;4.63;;;;;;;25.32;50.08;98128.22;6947506;28;20195;-78
2022/06/22 03:10:55;;;;;;;5.60;5.00;;;;;;;25.42;50.01;98122.44;6948171;28;20269;-78
2022/06/22 03:14:21;;;;;;;6.07;4.57;;;;;;;24.35;53.12;98112.66;6962444;28;20230;-78
2022/06/22 03:17:43;;;;;;;5.43;4.67;;;;;;;25.12;51.52;98105.84;6960245;28;20606;-78
2022/06/22 03:21:08;;;;;;;5.93;4.70;;;;;;;25.51;50.72;98130.75;6948930;28;20289;-78
2022/06/22 03:24:44;;;;;;;7.13;4.73;;;;;;;25.54;50.83;98127.38;6951968;28;20232;-78
2022/06/22 03:28:12;;;;;;;6.87;4.83;;;;;;;25.89;49.93;98127.19;6948565;28;20191;-78
2022/06/22 03:31:38;;;;;;;5.83;5.23;;;;;;;25.09;52.14;98129.38;6948788;28;20641;-78
2022/06/22 03:35:03;;;;;;;5.80;5.10;;;;;;;25.53;51.16;98123.78;6948485;28;20276;-78
2022/06/22 03:38:27;;;;;;;5.83;4.93;;;;;;;25.63;51.01;98118.00;6947421;28;20221;-78
2022/06/22 03:41:53;;;;;;;7.77;5.70;;;;;;;25.48;51.94;98112.09;6947888;28;20232;-78
2022/06/22 03:45:19;;;;;;;5.80;5.20;;;;;;;25.31;51.86;98076.13;6948410;28;20211;-78
2022/06/22 03:48:44;;;;;;;8.53;5.17;;;;;;;25.54;52.03;98113.56;6947723;28;20328;-78
2022/06/22 03:52:09;;;;;;;6.43;5.83;;;;;;;25.39;52.99;98122.25;6948796;28;20220;-79
2022/06/22 03:55:34;;;;;;;6.77;5.50;;;;;;;24.97;54.36;98117.25;6951304;28;20209;-79
2022/06/22 03:59:00;;;;;;;8.07;5.80;;;;;;;25.21;53.68;98123.25;6961025;28;20213;-78
2022/06/22 04:02:25;;;;;;;8.00;5.83;;;;;;;25.29;54.10;98114.22;6958232;28;20222;-78
2022/06/22 04:05:48;;;;;;;8.03;6.00;;;;;;;25.36;53.97;98125.66;6973139;28;20696;-79
2022/06/22 04:09:13;;;;;;;6.07;5.50;;;;;;;25.24;54.56;98133.72;6973196;28;20341;-78
2022/06/22 04:12:37;;;;;;;6.57;5.57;;;;;;;25.63;53.75;98147.53;6973636;28;20222;-79
2022/06/22 04:16:03;;;;;;;7.37;6.13;;;;;;;25.71;52.94;98149.53;6975540;28;20198;-79
2022/06/22 04:19:30;;;;;;;6.40;5.20;;;;;;;25.89;51.29;98141.00;6972543;28;20286;-78
2022/06/22 04:22:54;;;;;;;6.83;4.90;;;;;;;26.03;50.60;98138.16;6970010;28;20250;-79
2022/06/22 04:26:20;;;;;;;8.17;4.87;;;;;;;25.84;50.41;98132.84;6975006;28;20252;-78
2022/06/22 04:29:45;;;;;;;5.97;5.07;;;;;;;25.58;50.24;98098.81;6976731;28;20297;-77
2022/06/22 04:33:09;;;;;;;5.07;4.53;;;;;;;26.02;49.64;98142.84;6980553;28;20325;-77
2022/06/22 04:36:38;;;;;;;7.70;5.00;;;;;;;26.18;50.13;98151.53;6980680;28;20715;-78
2022/06/22 04:40:14;;;;;;;5.67;5.07;;;;;;;26.08;50.20;98160.09;6979255;28;20215;-78
2022/06/22 04:43:37;;;;;;;5.20;4.70;;;;;;;26.39;48.71;98150.59;6982508;28;20314;-78
2022/06/22 04:47:02;;;;;;;4.83;4.37;;;;;;;26.61;48.48;98146.91;6982981;28;20294;-78
2022/06/22 04:50:23;;;;;;;7.13;4.63;;;;;;;26.61;48.66;98153.22;6985664;28;20211;-78
2022/06/22 04:53:51;;;;;;;6.57;5.03;;;;;;;26.65;49.09;98173.59;6984061;28;20303;-80
2022/06/22 04:57:17;;;;;;;4.73;4.27;;;;;;;26.88;48.46;98175.06;6988059;28;20440;-80
2022/06/22 05:00:39;;;;;;;5.47;4.77;;;;;;;26.80;48.53;98156.53;6996665;28;20206;-79
2022/06/22 05:04:05;;;;;;;6.80;5.60;;;;;;;26.07;50.00;98141.91;6987750;28;20656;-79
2022/06/22 05:07:35;;;;;;;6.87;5.37;;;;;;;26.46;50.00;98150.09;6980755;28;20256;-78
2022/06/22 05:11:00;;;;;;;8.93;6.07;;;;;;;26.35;51.22;98176.41;6979592;28;20229;-78
2022/06/22 05:14:24;;;;;;;7.87;5.80;;;;;;;26.10;52.41;98166.94;6979509;28;20234;-78
2022/06/22 05:17:46;;;;;;;7.37;6.10;;;;;;;26.38;52.16;98154.50;6995547;28;20192;-80
2022/06/22 05:21:12;;;;;;;8.40;6.33;;;;;;;26.77;51.10;98154.38;6988256;28;20218;-79
2022/06/22 05:24:35;;;;;;;6.73;6.13;;;;;;;26.78;51.19;98139.41;6973885;28;20289;-79
2022/06/22 05:28:02;;;;;;;6.73;5.73;;;;;;;26.72;51.95;98131.63;6977990;28;20678;-78
2022/06/22 05:31:29;;;;;;;6.70;6.00;;;;;;;26.93;51.27;98158.31;6978635;28;20736;-79
2022/06/22 05:34:52;;;;;;;5.90;5.40;;;;;;;26.99;50.81;98159.75;6978363;28;20609;-78
2022/06/22 05:38:15;;;;;;;5.53;5.13;;;;;;;26.95;51.52;98161.53;6977253;28;20218;-78
2022/06/22 05:41:39;;;;;;;7.33;5.87;;;;;;;27.07;50.85;98150.63;6971614;28;20234;-78
2022/06/22 05:45:03;;;;;;;7.57;6.17;;;;;;;27.49;49.23;98163.59;6975733;28;20358;-79
2022/06/22 05:48:26;;;;;;;7.57;5.37;;;;;;;27.94;47.09;98180.59;6975631;28;20203;-79
2022/06/22 05:51:55;;;;;;;7.60;5.57;;;;;;;28.26;46.23;98189.09;6976577;28;20328;-78
2022/06/22 05:55:24;;;;;;;5.80;5.20;;;;;;;28.07;45.73;98194.25;6977316;28;20215;-80
2022/06/22 05:58:52;;;;;;;8.47;5.73;;;;;;;27.59;46.85;98192.91;6978058;28;20190;-79
2022/06/22 06:02:29;;;;;;;6.10;5.60;;;;;;;27.67;46.91;98176.25;6966407;28;20684;-79
2022/06/22 06:05:52;;;;;;;7.03;5.50;;;;;;;27.45;47.10;98184.00;6950784;28;20207;-79
2022/06/22 06:09:20;;;;;;;6.17;5.40;;;;;;;27.55;47.51;98192.75;6949730;28;20743;-79
2022/06/22 06:12:46;;;;;;;8.10;6.27;;;;;;;27.20;47.88;98188.41;6950679;28;20219;-79
2022/06/22 06:16:12;;;;;;;7.07;5.67;;;;;;;27.30;48.48;98193.63;6950210;28;20195;-79
2022/06/22 06:19:38;;;;;;;7.10;6.30;;;;;;;27.01;48.71;98203.72;6961270;28;20209;-79
2022/06/22 06:23:02;;;;;;;6.63;5.90;;;;;;;27.37;48.02;98215.28;6977416;28;20269;-79
2022/06/22 06:30:16;;;;;;;10.07;6.50;;;;;;;27.07;49.22;98224.56;6948499;28;20211;-79
2022/06/22 06:33:39;;;;;;;7.17;6.33;;;;;;;27.32;48.92;98232.06;6950008;28;20231;-79
2022/06/22 06:37:08;;;;;;;9.77;6.17;;;;;;;27.45;48.26;98237.44;6954060;28;20662;-78
2022/06/22 06:40:36;;;;;;;12.33;5.97;;;;;;;26.96;49.25;98235.13;6954304;28;20222;-79
2022/06/22 06:44:01;;;;;;;8.33;5.70;;;;;;;27.47;48.39;98237.91;6953980;28;20691;-79
2022/06/22 06:47:27;;;;;;;9.00;6.80;;;;;;;27.33;48.73;98242.81;6949474;28;20651;-80
2022/06/22 06:50:50;;;;;;;9.10;6.27;;;;;;;27.74;47.46;98247.81;6948483;28;20222;-79
2022/06/22 06:54:18;;;;;;;9.23;5.97;;;;;;;27.20;48.72;98243.78;6948538;28;20283;-79
2022/06/22 06:57:44;;;;;;;9.37;6.97;;;;;;;27.34;48.59;98241.69;6948381;28;20244;-79
2022/06/22 07:01:06;;;;;;;7.93;6.00;;;;;;;27.54;48.73;98249.28;6951082;28;20312;-79
2022/06/22 07:04:32;;;;;;;7.10;6.30;;;;;;;27.48;48.18;98245.06;6949672;28;20696;-80
2022/06/22 07:07:57;;;;;;;9.63;6.73;;;;;;;27.50;49.11;98266.91;6950867;28;20208;-80
2022/06/22 07:11:31;;;;;;;7.37;6.63;;;;;;;27.12;49.25;98274.19;6950836;28;20239;-80
2022/06/22 07:14:52;;;;;;;9.40;7.47;;;;;;;26.77;50.67;98267.00;6950869;28;20198;-80
2022/06/22 07:18:18;;;;;;;9.13;7.40;;;;;;;26.98;50.95;98279.06;6952043;28;20340;-79
2022/06/22 07:21:43;;;;;;;11.47;7.30;;;;;;;26.76;52.23;98268.13;6990899;28;20250;-81
2022/06/22 07:25:10;;;;;;;10.43;7.20;;;;;;;26.91;52.40;98282.34;6981243;28;20198;-79
2022/06/22 07:28:39;;;;;;;10.87;8.43;;;;;;;26.91;52.27;98284.28;6976192;28;20204;-79
2022/06/22 07:32:06;;;;;;;10.33;7.63;;;;;;;26.58;52.36;98283.03;6976273;28;20226;-79
2022/06/22 07:35:33;;;;;;;12.50;7.90;;;;;;;26.58;52.43;98256.22;6970653;28;20208;-79
2022/06/22 07:38:59;;;;;;;9.70;8.33;;;;;;;26.83;52.52;98274.03;6967301;28;20213;-79
2022/06/22 07:42:21;;;;;;;10.83;8.80;;;;;;;26.40;52.49;98270.28;6964469;28;20226;-79
2022/06/22 07:45:43;;;;;;;10.93;8.80;;;;;;;26.35;53.95;98251.88;6986493;28;20245;-80
2022/06/22 07:49:09;;;;;;;13.80;8.43;;;;;;;26.51;52.29;98214.38;6981848;28;20635;-79
2022/06/22 07:52:34;;;;;;;9.63;8.63;;;;;;;26.33;53.97;98237.59;6972515;28;20304;-80
2022/06/22 07:56:00;;;;;;;13.00;9.23;;;;;;;25.78;54.28;98230.78;6976027;28;20198;-80
2022/06/22 07:59:26;;;;;;;10.80;9.03;;;;;;;26.07;54.51;98214.53;6975657;28;20200;-80
2022/06/22 08:02:53;;;;;;;10.73;8.30;;;;;;;26.06;54.77;98229.50;6975610;28;20229;-79
2022/06/22 08:06:19;;;;;;;13.70;9.23;;;;;;;26.23;53.78;98214.91;6975844;28;20194;-79
2022/06/22 08:09:45;;;;;;;9.10;8.20;;;;;;;26.37;52.55;98238.56;6976609;28;20215;-80
2022/06/22 08:13:10;;;;;;;10.40;8.80;;;;;;;26.85;52.75;98244.88;6976627;28;20226;-79
2022/06/22 08:16:33;;;;;;;9.20;8.30;;;;;;;26.89;52.58;98240.31;6974269;28;20256;-79
2022/06/22 08:19:56;;;;;;;13.40;9.40;;;;;;;27.06;52.91;98222.91;6973556;28;20293;-79
2022/06/22 08:23:20;;;;;;;11.63;8.47;;;;;;;27.63;51.40;98227.94;6973076;28;20227;-79
2022/06/22 08:26:42;;;;;;;8.87;7.37;;;;;;;27.60;49.64;98228.59;6975393;28;20202;-80
2022/06/22 08:30:04;;;;;;;11.10;8.53;;;;;;;27.78;49.47;98232.97;6974568;28;20222;-78
2022/06/22 08:33:30;;;;;;;8.00;7.20;;;;;;;27.96;46.53;98201.28;6975367;28;20233;-79
2022/06/22 08:36:55;;;;;;;7.87;7.07;;;;;;;28.10;46.83;98217.72;6974980;28;20643;-79
2022/06/22 08:40:23;;;;;;;8.10;7.33;;;;;;;28.28;46.18;98225.63;6966765;28;20213;-79
2022/06/22 08:43:49;;;;;;;12.33;8.13;;;;;;;27.94;46.99;98202.78;6974648;28;20321;-79
2022/06/22 08:47:39;;;;;;;11.83;7.80;;;;;;;28.14;47.33;98229.78;6974863;28;20228;-79
2022/06/22 08:51:15;;;;;;;8.40;7.30;;;;;;;27.73;48.13;98232.31;6964811;28;20320;-79
2022/06/22 08:55:04;;;;;;;9.07;6.93;;;;;;;27.67;47.02;98245.53;6974737;28;20685;-79
2022/06/22 08:58:39;;;;;;;7.63;6.63;;;;;;;27.94;44.52;98245.16;6971674;28;20210;-79
2022/06/22 09:02:12;;;;;;;8.13;7.33;;;;;;;28.10;45.67;98240.72;6969152;28;20231;-79
2022/06/22 09:05:54;;;;;;;7.87;7.10;;;;;;;28.28;45.85;98242.28;6964918;28;20302;-79
2022/06/22 09:09:36;;;;;;;8.60;7.53;;;;;;;28.22;45.20;98240.00;6964214;28;20197;-79
2022/06/22 09:13:20;;;;;;;8.30;7.50;;;;;;;28.07;46.34;98244.13;6974945;28;20322;-79
2022/06/22 09:17:03;;;;;;;11.60;8.43;;;;;;;28.10;48.75;98259.31;6979449;28;20217;-79
2022/06/22 09:20:50;;;;;;;12.13;8.90;;;;;;;28.58;48.71;98266.13;6972579;28;20210;-79
2022/06/22 09:24:19;;;;;;;11.27;8.20;;;;;;;28.97;47.84;98278.84;6971542;28;20190;-80
2022/06/22 09:27:48;;;;;;;10.00;8.57;;;;;;;28.48;49.09;98283.16;6975742;28;20204;-79
2022/06/22 09:31:22;;;;;;;10.87;8.80;;;;;;;27.53;49.30;98277.31;6965241;28;20232;-80
2022/06/22 09:35:10;;;;;;;11.00;7.77;;;;;;;28.66;46.91;98270.81;6967007;28;20205;-79
2022/06/22 09:38:43;;;;;;;10.10;7.80;;;;;;;28.16;46.87;98280.16;6963193;28;20291;-80
2022/06/22 09:42:22;;;;;;;8.13;7.33;;;;;;;28.46;47.45;98281.84;6958253;28;20229;-79
2022/06/22 09:46:09;;;;;;;8.37;7.57;;;;;;;28.43;46.85;98279.75;6969878;28;20243;-79
2022/06/22 09:49:56;;;;;;;11.43;7.07;;;;;;;27.80;46.56;98277.00;6957008;28;20740;-79
2022/06/22 09:53:38;;;;;;;9.80;6.37;;;;;;;27.82;46.12;98275.53;6964913;28;20281;-79
2022/06/22 09:57:07;;;;;;;9.20;6.60;;;;;;;27.82;46.81;98258.06;6978164;28;20189;-79
2022/06/22 10:00:34;;;;;;;13.07;7.97;;;;;;;27.51;47.61;98283.22;6991152;28;20579;-80
2022/06/22 10:04:25;;;;;;;8.40;7.13;;;;;;;27.72;47.50;98266.72;6973391;28;20220;-79
2022/06/22 10:08:03;;;;;;;8.23;7.03;;;;;;;27.98;45.96;98270.25;6985542;28;20209;-80
2022/06/22 10:11:31;;;;;;;8.23;6.63;;;;;;;28.01;44.35;98275.97;6985832;28;20240;-80
2022/06/22 10:15:05;;;;;;;8.93;6.80;;;;;;;27.99;44.80;98286.56;6977410;28;20203;-79
2022/06/22 10:18:38;;;;;;;9.70;7.40;;;;;;;27.58;45.15;98286.28;6972316;28;20200;-78
2022/06/22 10:22:14;;;;;;;8.90;6.90;;;;;;;28.05;44.53;98288.03;6977857;28;20229;-79
2022/06/22 10:26:01;;;;;;;13.33;8.23;;;;;;;27.82;44.90;98281.06;6955831;28;20227;-79
2022/06/22 10:29:45;;;;;;;10.17;7.90;;;;;;;27.65;45.35;98299.66;6963171;28;20206;-80
2022/06/22 10:33:27;;;;;;;17.90;15.67;;;;;;;28.20;45.50;98319.94;6962780;28;20531;-81
2022/06/22 10:37:20;;;;;;;8.60;7.27;;;;;;;28.19;45.93;98327.44;6972958;28;20237;-79
2022/06/22 10:45:10;;;;;;;9.47;6.63;;;;;;;28.51;45.79;98337.16;6973471;28;20219;-78
2022/06/22 10:48:55;;;;;;;9.13;6.87;;;;;;;28.18;48.05;98330.56;6961614;28;20352;-79
2022/06/22 10:52:23;;;;;;;10.57;8.77;;;;;;;27.89;50.41;98349.84;6985328;28;20260;-79
2022/06/22 10:55:57;;;;;;;10.43;9.43;;;;;;;27.44;52.92;98352.13;6974915;28;20208;-79
2022/06/22 10:59:38;;;;;;;12.23;9.80;;;;;;;27.18;54.47;98361.53;6951690;28;20210;-80
2022/06/22 11:03:34;;;;;;;10.00;9.10;;;;;;;26.93;53.76;98365.00;6969301;28;20240;-79
2022/06/22 11:07:27;;;;;;;7.70;7.00;;;;;;;27.41;50.51;98368.53;6977381;28;20217;-78
2022/06/22 11:11:10;;;;;;;10.77;8.67;;;;;;;26.93;51.55;98362.22;6962888;28;20232;-80
2022/06/22 11:15:04;;;;;;;13.13;9.93;;;;;;;26.96;55.41;98373.47;6949521;28;20192;-79
2022/06/22 11:18:51;;;;;;;12.73;11.43;;;;;;;27.17;54.73;98376.50;6953292;28;20208;-78
2022/06/22 11:22:20;;;;;;;12.20;11.10;;;;;;;26.54;56.14;98367.81;6946298;28;20239;-78
2022/06/22 11:33:54;;;;;;;13.67;11.20;;;;;;;27.13;55.79;98376.28;6961285;28;20294;-78
2022/06/22 11:37:24;;;;;;;12.23;9.27;;;;;;;26.63;54.62;98380.53;6971389;28;20206;-82
2022/06/22 11:41:03;;;;;;;12.23;9.93;;;;;;;26.07;54.87;98374.00;6967276;28;20190;-79
2022/06/22 11:49:00;;;;;;;11.93;9.43;;;;;;;26.57;55.39;98365.22;6964998;28;20205;-79
2022/06/22 11:52:33;;;;;;;11.03;8.60;;;;;;;27.14;53.09;98366.84;6973379;28;20231;-79
2022/06/22 11:55:59;;;;;;;8.47;7.60;;;;;;;27.57;51.70;98367.75;6969411;28;20211;-78
2022/06/22 11:59:43;;;;;;;10.03;8.37;;;;;;;27.54;52.80;98353.75;6949327;28;20660;-79
2022/06/22 12:03:27;;;;;;;9.57;8.53;;;;;;;27.13;54.53;98348.59;6951012;28;20227;-78
2022/06/22 12:06:58;;;;;;;11.27;9.77;;;;;;;26.97;56.04;98371.53;6966122;28;20208;-79
2022/06/22 12:10:37;;;;;;;11.27;10.13;;;;;;;27.08;55.78;98362.59;6973937;28;20206;-80
2022/06/22 12:18:11;;;;;;;10.17;9.17;;;;;;;26.52;55.81;98347.91;6974639;28;20239;-79
2022/06/22 12:22:01;;;;;;;11.67;10.47;;;;;;;26.76;58.33;98349.19;6976078;28;20633;-79
2022/06/22 12:25:50;;;;;;;11.97;10.70;;;;;;;26.70;57.08;98333.03;6962536;28;20283;-78
2022/06/22 12:29:38;;;;;;;11.63;9.43;;;;;;;27.14;54.49;98339.16;6974853;28;20202;-78
2022/06/22 12:33:03;;;;;;;14.33;8.90;;;;;;;27.64;53.20;98315.44;6963242;28;20228;-80
2022/06/22 12:36:28;;;;;;;12.10;9.13;;;;;;;27.74;53.96;98337.28;6974669;28;20213;-79
2022/06/22 12:39:54;;;;;;;12.30;9.17;;;;;;;27.13;53.27;98333.97;6973084;28;20195;-78
2022/06/22 12:43:51;;;;;;;10.83;8.77;;;;;;;27.88;52.19;98332.41;6975693;28;20227;-79
2022/06/22 12:47:30;;;;;;;10.67;9.63;;;;;;;27.74;52.26;98320.66;6969806;28;20268;-81
2022/06/22 12:51:08;;;;;;;13.57;10.50;;;;;;;27.01;54.35;98314.41;6978464;28;20200;-79
2022/06/22 12:54:33;;;;;;;64.50;46.93;;;;;;;27.73;51.01;98304.34;6982709;28;20201;-79
2022/06/22 12:58:00;;;;;;;12.43;10.30;;;;;;;27.97;50.75;98305.50;6983570;28;20271;-79
2022/06/22 13:01:23;;;;;;;11.47;9.33;;;;;;;27.97;51.52;98299.97;6980744;28;20592;-79
2022/06/22 13:04:47;;;;;;;9.50;8.53;;;;;;;27.01;51.96;98293.06;6982481;28;20211;-79
2022/06/22 13:08:11;;;;;;;8.30;7.13;;;;;;;27.70;50.11;98297.50;6981537;28;20210;-78
2022/06/22 13:11:33;;;;;;;7.53;6.70;;;;;;;27.76;51.62;98309.22;6981452;28;20244;-79
2022/06/22 13:15:00;;;;;;;12.20;9.93;;;;;;;27.74;52.03;98292.97;6982155;28;20288;-83
2022/06/22 13:18:25;;;;;;;10.87;9.67;;;;;;;27.40;52.01;98295.75;6981822;28;20575;-79
2022/06/22 13:21:54;;;;;;;12.17;10.03;;;;;;;28.06;51.00;98291.59;6982817;28;20224;-80
2022/06/22 13:25:20;;;;;;;10.07;9.07;;;;;;;27.65;52.26;98277.50;6984382;28;20267;-79
2022/06/22 13:28:47;;;;;;;12.00;10.80;;;;;;;28.29;50.31;98273.56;6983030;28;20194;-79
2022/06/22 13:32:12;;;;;;;15.77;11.03;;;;;;;27.39;52.68;98249.81;6984587;28;20690;-79
2022/06/22 13:35:37;;;;;;;11.43;10.30;;;;;;;27.75;53.73;98230.84;7003633;28;20248;-80
2022/06/22 13:39:03;;;;;;;11.30;9.33;;;;;;;28.48;51.78;98277.59;6981411;28;20215;-80
2022/06/22 13:42:34;;;;;;;11.80;9.13;;;;;;;28.06;51.62;98250.00;6976311;28;20359;-79
2022/06/22 13:46:17;;;;;;;11.83;8.43;;;;;;;28.71;50.09;98255.97;6983901;28;20224;-79
2022/06/22 13:49:46;;;;;;;12.57;8.20;;;;;;;28.66;51.89;98253.38;6982347;28;20204;-81
2022/06/22 13:53:16;;;;;;;10.87;9.40;;;;;;;28.92;49.60;98243.72;6983269;28;20262;-79
2022/06/22 13:56:50;;;;;;;9.90;8.90;;;;;;;29.02;50.42;98257.22;6982822;28;20200;-79
2022/06/22 14:00:15;;;;;;;10.43;9.43;;;;;;;28.38;51.96;98236.38;6983040;28;20250;-79
2022/06/22 14:03:40;;;;;;;10.60;9.57;;;;;;;29.18;50.73;98238.81;6987559;28;20239;-80
2022/06/22 14:07:06;;;;;;;10.70;9.57;;;;;;;29.07;50.47;98217.38;6978814;28;20203;-80
2022/06/22 14:10:33;;;;;;;10.03;9.03;;;;;;;29.09;49.63;98235.31;6996871;28;20201;-80
2022/06/22 14:13:58;;;;;;;11.37;9.90;;;;;;;29.10;48.81;98244.44;7000368;28;20235;-80
2022/06/22 14:17:23;;;;;;;10.57;9.47;;;;;;;28.99;50.18;98232.94;6972112;28;20214;-80
2022/06/22 14:21:03;;;;;;;11.13;10.03;;;;;;;28.95;51.17;98229.19;6987771;28;20221;-80
2022/06/22 14:24:29;;;;;;;13.27;11.53;;;;;;;28.16;51.68;98233.03;6994125;28;20214;-80
2022/06/22 14:27:55;;;;;;;12.33;11.03;;;;;;;28.54;51.66;98223.56;6996824;28;20215;-79
2022/06/22 14:31:21;;;;;;;12.87;10.00;;;;;;;28.52;50.54;98230.59;6993175;28;20224;-79
2022/06/22 14:34:56;;;;;;;12.57;9.83;;;;;;;28.83;51.98;98239.41;6988161;28;20210;-78
2022/06/22 14:38:25;;;;;;;14.50;11.60;;;;;;;27.44;54.11;98216.44;6991963;28;20601;-78
2022/06/22 14:41:53;;;;;;;12.33;11.03;;;;;;;27.50;54.38;98230.91;6992591;28;20227;-78
2022/06/22 14:45:18;;;;;;;12.83;10.80;;;;;;;27.29;54.72;98232.69;6987349;28;20245;-78
2022/06/22 14:48:44;;;;;;;14.97;11.80;;;;;;;27.60;54.46;98241.66;6979283;28;20210;-78
2022/06/22 14:52:11;;;;;;;14.40;11.47;;;;;;;27.20;55.45;98207.00;6976526;28;20370;-78
2022/06/22 14:55:38;;;;;;;11.47;10.27;;;;;;;27.61;55.17;98234.97;6975619;28;20203;-77
2022/06/22 14:59:05;;;;;;;14.93;11.50;;;;;;;27.52;55.43;98246.06;6976143;28;20211;-77
2022/06/22 15:02:29;;;;;;;15.43;10.13;;;;;;;28.29;53.70;98245.84;6975687;28;20227;-77
2022/06/22 15:05:57;;;;;;;13.50;10.93;;;;;;;28.55;52.67;98244.59;6966276;28;20265;-77
2022/06/22 15:09:22;;;;;;;10.07;8.70;;;;;;;28.90;51.39;98248.78;6971515;28;20571;-77
2022/06/22 15:12:59;;;;;;;16.57;11.10;;;;;;;28.58;51.04;98234.78;6955749;28;20224;-77
2022/06/22 15:16:26;;;;;;;12.53;9.37;;;;;;;28.63;52.72;98243.75;6948266;28;20632;-77
2022/06/22 15:19:53;;;;;;;10.87;9.63;;;;;;;28.91;52.21;98244.84;6946621;28;20189;-77
2022/06/22 15:23:19;;;;;;;11.93;9.23;;;;;;;28.53;52.52;98241.34;6946221;28;20351;-77
2022/06/22 15:26:44;;;;;;;11.40;8.83;;;;;;;28.18;54.27;98231.53;6965723;28;20191;-77
2022/06/22 15:30:17;;;;;;;13.23;9.00;;;;;;;28.45;53.49;98236.69;6973043;28;20194;-76
2022/06/22 15:33:41;;;;;;;10.63;9.27;;;;;;;28.27;53.76;98231.50;6972811;28;20256;-77
2022/06/22 15:37:32;;;;;;;10.80;8.00;;;;;;;28.78;52.12;98248.69;6991024;28;20194;-78
2022/06/22 15:40:57;;;;;;;9.70;7.43;;;;;;;28.46;52.26;98241.06;6979732;28;20198;-79
2022/06/22 15:44:22;;;;;;;7.10;6.20;;;;;;;28.66;52.36;98240.28;6948335;28;20208;-78
2022/06/22 15:47:47;;;;;;;11.07;6.37;;;;;;;28.54;52.32;98236.63;6959985;28;20219;-79
2022/06/22 15:51:21;;;;;;;8.70;6.00;;;;;;;28.72;51.61;98233.41;6947658;28;20328;-78
2022/06/22 15:54:48;;;;;;;10.13;5.10;;;;;;;28.17;51.09;98181.97;6974452;28;20223;-79
2022/06/22 15:58:13;;;;;;;11.13;5.13;;;;;;;28.46;50.96;98216.09;6965095;28;20193;-79
2022/06/22 16:01:39;;;;;;;8.90;5.47;;;;;;;28.48;50.64;98230.44;6957956;28;20225;-78
2022/06/22 16:05:07;;;;;;;8.63;5.10;;;;;;;28.74;50.04;98225.56;6964922;28;20210;-77
2022/06/22 16:08:33;;;;;;;8.17;5.00;;;;;;;28.73;50.07;98207.28;6969253;28;20257;-80
2022/06/22 16:15:42;;;;;;;10.00;4.40;;;;;;;28.52;49.32;98177.88;6970323;28;20265;-79
2022/06/22 16:19:09;;;;;;;8.17;4.93;;;;;;;28.53;49.87;98226.66;6972844;28;20223;-78
2022/06/22 16:22:37;;;;;;;11.40;4.73;;;;;;;28.59;49.50;98211.44;6960224;28;22519;-79
2022/06/22 16:26:04;;;;;;;9.43;5.13;;;;;;;28.86;49.00;98209.00;6972608;28;20612;-80
2022/06/22 16:29:29;;;;;;;8.40;4.87;;;;;;;28.74;49.60;98219.19;6974072;28;20715;-79
2022/06/22 16:32:54;;;;;;;12.53;5.00;;;;;;;28.54;49.90;98220.78;6972898;28;20238;-79
2022/06/22 16:36:23;;;;;;;12.57;5.70;;;;;;;28.41;49.74;98216.31;6973444;28;20202;-78
2022/06/22 16:39:52;;;;;;;80.43;60.97;;;;;;;28.62;49.40;98219.13;6974795;28;20201;-80
2022/06/22 16:43:20;;;;;;;17.40;10.87;;;;;;;28.58;48.92;98232.84;6972494;28;20238;-80
2022/06/22 16:46:46;;;;;;;11.97;5.30;;;;;;;28.40;49.25;98222.16;6963227;28;20585;-80
2022/06/22 16:50:15;;;;;;;10.63;5.07;;;;;;;28.44;49.40;98212.88;6949900;28;20191;-80